createdAt,value
2022-08-17T00:02:25.297Z,6.88
2022-08-17T00:04:54.810Z,6.15
2022-08-17T00:07:21.514Z,5.18
2022-08-17T00:09:48.266Z,7.10
2022-08-17T00:12:40.799Z,5.40
2022-08-17T00:15:01.717Z,7.28
2022-08-17T00:17:28.479Z,9.63
2022-08-17T00:19:55.044Z,5.45
2022-08-17T00:22:32.472Z,7.78
2022-08-17T00:25:07.301Z,6.35
2022-08-17T00:27:34.454Z,7.18
2022-08-17T00:30:01.037Z,10.27
2022-08-17T00:33:15.194Z,7.45
2022-08-17T00:35:17.641Z,6.25
2022-08-17T00:37:44.204Z,6.28
2022-08-17T00:40:13.122Z,6.75
2022-08-17T00:42:40.394Z,8.15
2022-08-17T00:45:10.106Z,8.40
2022-08-17T00:47:36.636Z,6.45
2022-08-17T00:50:05.789Z,8.50
2022-08-17T00:52:36.227Z,5.22
2022-08-17T00:55:03.748Z,5.22
2022-08-17T00:57:40.359Z,8.25
2022-08-17T01:00:15.804Z,4.97
2022-08-17T01:02:44.477Z,5.50
2022-08-17T01:05:20.686Z,7.60
2022-08-17T01:07:50.672Z,8.23
2022-08-17T01:11:00.678Z,5.60
2022-08-17T01:13:10.233Z,5.13
2022-08-17T01:15:41.399Z,5.28
2022-08-17T01:18:14.077Z,4.95
2022-08-17T01:21:04.192Z,5.60
2022-08-17T01:23:30.940Z,5.82
2022-08-17T01:25:59.854Z,7.18
2022-08-17T01:28:53.178Z,5.82
2022-08-17T01:31:17.672Z,7.20
2022-08-17T01:33:44.539Z,6.55
2022-08-17T01:36:11.174Z,6.70
2022-08-17T01:38:38.368Z,6.60
2022-08-17T01:41:14.283Z,9.10
2022-08-17T01:43:48.660Z,5.85
2022-08-17T01:46:20.105Z,9.45
2022-08-17T01:48:47.554Z,7.95
2022-08-17T01:51:15.641Z,6.95
2022-08-17T01:53:46.190Z,7.53
2022-08-17T01:56:16.330Z,6.18
2022-08-17T01:58:43.464Z,6.97
2022-08-17T02:01:10.614Z,5.30
2022-08-17T02:03:38.056Z,9.32
2022-08-17T02:06:06.056Z,9.32
2022-08-17T02:09:01.622Z,6.80
2022-08-17T02:11:30.568Z,5.95
2022-08-17T02:14:03.343Z,7.85
2022-08-17T02:16:37.027Z,8.95
2022-08-17T02:19:07.497Z,6.80
2022-08-17T02:21:34.909Z,7.38
2022-08-17T02:24:01.699Z,7.78
2022-08-17T02:26:28.376Z,5.97
2022-08-17T02:28:55.028Z,9.52
2022-08-17T02:31:21.655Z,9.43
2022-08-17T02:33:56.680Z,6.75
2022-08-17T02:36:31.168Z,6.65
2022-08-17T02:38:58.692Z,6.57
2022-08-17T02:41:25.514Z,8.60
2022-08-17T02:43:53.197Z,7.43
2022-08-17T02:46:19.793Z,7.13
2022-08-17T02:48:46.455Z,6.60
2022-08-17T02:51:13.040Z,7.00
2022-08-17T02:53:39.604Z,7.22
2022-08-17T02:56:06.367Z,7.97
2022-08-17T02:58:34.920Z,5.63
2022-08-17T03:01:03.308Z,5.25
2022-08-17T03:03:30.063Z,5.18
2022-08-17T03:05:56.666Z,4.88
2022-08-17T03:08:23.894Z,5.32
2022-08-17T03:10:50.581Z,5.78
2022-08-17T03:13:17.693Z,5.22
2022-08-17T03:15:45.872Z,5.80
2022-08-17T03:18:19.078Z,5.70
2022-08-17T03:20:52.351Z,8.43
2022-08-17T03:23:18.979Z,4.60
2022-08-17T03:25:53.062Z,6.00
2022-08-17T03:28:20.851Z,6.90
2022-08-17T03:30:47.419Z,4.35
2022-08-17T03:33:14.311Z,6.10
2022-08-17T03:35:41.740Z,7.47
2022-08-17T03:38:10.300Z,7.25
2022-08-17T03:40:56.853Z,7.60
2022-08-17T03:43:24.324Z,7.53
2022-08-17T03:46:28.896Z,5.75
2022-08-17T03:49:15.666Z,6.18
2022-08-17T03:52:00.878Z,5.25
2022-08-17T03:54:45.919Z,5.55
2022-08-17T03:57:13.101Z,4.85
2022-08-17T03:59:40.864Z,7.93
2022-08-17T04:02:20.474Z,7.97
2022-08-17T04:04:50.913Z,8.40
2022-08-17T04:07:19.579Z,4.45
2022-08-17T04:09:46.123Z,5.30
2022-08-17T04:12:15.289Z,6.65
2022-08-17T04:14:52.609Z,10.50
2022-08-17T04:17:25.908Z,6.07
2022-08-17T04:19:53.975Z,5.32
2022-08-17T04:22:30.042Z,5.75
2022-08-17T04:25:01.313Z,5.75
2022-08-17T04:27:27.887Z,4.90
2022-08-17T04:29:55.963Z,6.15
2022-08-17T04:32:58.504Z,6.32
2022-08-17T04:35:09.940Z,4.72
2022-08-17T04:37:36.541Z,8.32
2022-08-17T04:40:22.706Z,5.70
2022-08-17T04:43:07.550Z,4.70
2022-08-17T04:45:34.957Z,6.00
2022-08-17T04:48:01.616Z,10.93
2022-08-17T04:50:28.297Z,5.00
2022-08-17T04:52:55.181Z,4.40
2022-08-17T04:55:22.137Z,5.63
2022-08-17T04:57:48.813Z,5.38
2022-08-17T05:00:15.680Z,6.50
2022-08-17T05:02:50.600Z,6.03
2022-08-17T05:05:21.898Z,6.38
2022-08-17T05:07:52.654Z,6.97
2022-08-17T05:10:20.027Z,8.18
2022-08-17T05:12:46.639Z,5.85
2022-08-17T05:15:16.174Z,6.03
2022-08-17T05:17:43.432Z,5.60
2022-08-17T05:20:10.452Z,6.63
2022-08-17T05:22:58.684Z,5.30
2022-08-17T05:25:33.303Z,6.15
2022-08-17T05:28:03.213Z,9.07
2022-08-17T05:30:29.976Z,12.13
2022-08-17T05:32:59.772Z,5.97
2022-08-17T05:35:28.088Z,8.27
2022-08-17T05:37:54.839Z,10.25
2022-08-17T05:40:25.918Z,7.10
2022-08-17T05:43:03.875Z,6.50
2022-08-17T05:45:54.824Z,8.45
2022-08-17T05:48:18.223Z,5.72
2022-08-17T05:51:20.065Z,5.85
2022-08-17T05:53:47.728Z,9.35
2022-08-17T05:56:29.823Z,6.38
2022-08-17T05:59:23.325Z,7.25
2022-08-17T06:02:02.976Z,5.10
2022-08-17T06:05:02.733Z,8.02
2022-08-17T06:07:47.908Z,6.75
2022-08-17T06:10:23.370Z,4.80
2022-08-17T06:13:09.569Z,6.10
2022-08-17T06:16:33.341Z,8.98
2022-08-17T06:19:17.784Z,5.65
2022-08-17T06:21:49.280Z,4.80
2022-08-17T06:24:34.296Z,6.35
2022-08-17T06:27:33.175Z,5.35
2022-08-17T06:30:09.294Z,6.35
2022-08-17T06:32:42.586Z,6.60
2022-08-17T06:35:12.834Z,6.13
2022-08-17T06:37:59.651Z,5.50
2022-08-17T06:40:26.223Z,8.10
2022-08-17T06:43:48.423Z,7.20
2022-08-17T06:46:27.543Z,6.28
2022-08-17T06:48:57.027Z,6.55
2022-08-17T06:51:29.403Z,8.18
2022-08-17T06:54:05.735Z,5.75
2022-08-17T06:56:55.312Z,5.38
2022-08-17T06:59:54.799Z,8.38
2022-08-17T07:02:52.249Z,6.57
2022-08-17T07:05:21.896Z,5.43
2022-08-17T07:08:02.307Z,4.38
2022-08-17T07:10:41.411Z,5.33
2022-08-17T07:13:19.435Z,5.70
2022-08-17T07:15:47.426Z,6.97
2022-08-17T07:18:14.215Z,4.90
2022-08-17T07:20:42.903Z,3.85
2022-08-17T07:23:22.711Z,5.80
2022-08-17T07:25:50.345Z,3.67
2022-08-17T07:28:22.909Z,3.92
2022-08-17T07:30:54.118Z,3.75
2022-08-17T07:33:27.488Z,8.73
2022-08-17T07:35:54.302Z,5.03
2022-08-17T07:38:26.892Z,4.38
2022-08-17T07:41:05.230Z,5.90
2022-08-17T07:43:45.696Z,6.25
2022-08-17T07:46:53.761Z,4.57
2022-08-17T07:49:32.431Z,2.95
2022-08-17T07:52:24.044Z,6.55
2022-08-17T07:54:49.134Z,3.03
2022-08-17T07:57:15.707Z,3.40
2022-08-17T08:00:12.614Z,3.42
2022-08-17T08:02:47.336Z,4.30
2022-08-17T08:05:31.723Z,4.13
2022-08-17T08:08:42.319Z,6.10
2022-08-17T08:11:13.111Z,4.38
2022-08-17T08:13:43.616Z,3.47
2022-08-17T08:16:15.190Z,4.68
2022-08-17T08:18:55.770Z,3.00
2022-08-17T08:21:47.223Z,2.95
2022-08-17T08:24:30.802Z,5.27
2022-08-17T08:27:35.687Z,3.10
2022-08-17T08:30:33.091Z,5.93
2022-08-17T08:33:56.232Z,5.38
2022-08-17T08:37:12.748Z,2.50
2022-08-17T08:39:52.047Z,6.33
2022-08-17T08:42:33.222Z,2.90
2022-08-17T08:45:04.485Z,2.85
2022-08-17T08:47:35.407Z,4.10
2022-08-17T08:50:37.653Z,2.50
2022-08-17T08:53:43.606Z,6.68
2022-08-17T08:56:16.182Z,3.42
2022-08-17T08:59:21.433Z,2.30
2022-08-17T09:02:16.717Z,9.38
2022-08-17T09:05:14.444Z,3.97
2022-08-17T09:07:49.782Z,4.03
2022-08-17T09:10:29.804Z,4.90
2022-08-17T09:13:10.275Z,4.13
2022-08-17T09:15:47.115Z,3.60
2022-08-17T09:19:02.448Z,3.22
2022-08-17T09:21:14.900Z,5.28
2022-08-17T09:23:59.421Z,6.28
2022-08-17T09:29:06.997Z,3.70
2022-08-17T09:31:46.500Z,4.15
2022-08-17T09:34:18.326Z,5.60
2022-08-17T09:36:52.086Z,6.72
2022-08-17T09:39:31.027Z,3.80
2022-08-17T09:42:08.416Z,3.30
2022-08-17T09:44:41.214Z,6.68
2022-08-17T09:47:12.766Z,6.32
2022-08-17T09:49:47.448Z,5.13
2022-08-17T09:52:18.133Z,3.10
2022-08-17T09:54:45.421Z,5.18
2022-08-17T09:57:30.347Z,2.67
2022-08-17T09:59:57.140Z,6.13
2022-08-17T10:02:38.592Z,2.72
2022-08-17T10:05:15.289Z,5.13
2022-08-17T10:07:47.661Z,7.05
2022-08-17T10:10:26.162Z,6.60
2022-08-17T10:13:01.706Z,4.78
2022-08-17T10:15:33.458Z,3.50
2022-08-17T10:18:18.940Z,3.35
2022-08-17T10:21:25.110Z,5.93
2022-08-17T10:24:15.853Z,3.22
2022-08-17T10:26:57.248Z,2.85
2022-08-17T10:29:48.984Z,3.72
2022-08-17T10:32:46.553Z,8.50
2022-08-17T10:35:29.554Z,3.92
2022-08-17T10:38:15.413Z,5.75
2022-08-17T10:41:07.257Z,2.50
2022-08-17T10:44:28.561Z,3.75
2022-08-17T10:47:02.792Z,4.63
2022-08-17T10:49:54.056Z,6.28
2022-08-17T10:52:20.973Z,4.03
2022-08-17T10:54:59.048Z,2.38
2022-08-17T10:57:34.449Z,4.40
2022-08-17T11:00:03.632Z,3.92
2022-08-17T11:02:41.306Z,5.25
2022-08-17T11:05:28.951Z,6.03
2022-08-17T11:08:05.492Z,4.60
2022-08-17T11:11:09.216Z,7.25
2022-08-17T11:14:17.325Z,2.42
2022-08-17T11:17:20.614Z,4.07
2022-08-17T11:20:20.313Z,5.18
2022-08-17T11:23:14.746Z,5.63
2022-08-17T11:26:04.112Z,5.72
2022-08-17T11:28:44.415Z,7.55
2022-08-17T11:31:38.386Z,8.18
2022-08-17T11:34:12.117Z,6.20
2022-08-17T11:36:48.980Z,5.53
2022-08-17T11:39:24.491Z,4.07
2022-08-17T11:42:19.968Z,3.67
2022-08-17T11:45:32.077Z,3.60
2022-08-17T11:48:41.464Z,5.93
2022-08-17T11:51:33.815Z,4.75
2022-08-17T11:54:31.783Z,9.20
2022-08-17T11:56:53.357Z,6.80
2022-08-17T11:59:50.293Z,4.82
2022-08-17T12:02:19.835Z,3.67
2022-08-17T12:05:21.027Z,4.35
2022-08-17T12:07:54.805Z,4.60
2022-08-17T12:10:31.613Z,3.20
2022-08-17T12:13:00.182Z,5.28
2022-08-17T12:15:36.699Z,5.20
2022-08-17T12:18:03.518Z,2.55
2022-08-17T12:20:37.303Z,5.53
2022-08-17T12:23:21.166Z,2.55
2022-08-17T12:25:58.198Z,3.92
2022-08-17T12:28:27.874Z,6.75
2022-08-17T12:31:05.485Z,3.20
2022-08-17T12:33:32.088Z,5.07
2022-08-17T12:36:05.437Z,4.00
2022-08-17T12:38:37.347Z,4.38
2022-08-17T12:41:27.467Z,5.55
2022-08-17T12:44:01.543Z,7.18
2022-08-17T12:46:34.807Z,2.60
2022-08-17T12:49:32.803Z,4.00
2022-08-17T12:52:12.690Z,4.10
2022-08-17T12:54:48.698Z,3.67
2022-08-17T12:57:18.596Z,3.83
2022-08-17T12:59:49.287Z,4.10
2022-08-17T13:02:28.394Z,4.45
2022-08-17T13:04:57.332Z,8.10
2022-08-17T13:07:29.086Z,5.10
2022-08-17T13:09:55.682Z,3.75
2022-08-17T13:12:34.575Z,3.42
2022-08-17T13:15:01.399Z,3.17
2022-08-17T13:17:31.880Z,5.38
2022-08-17T13:22:26.480Z,4.95
2022-08-17T13:24:58.664Z,4.20
2022-08-17T13:27:27.145Z,2.58
2022-08-17T13:29:57.513Z,4.28
2022-08-17T13:32:44.308Z,6.63
2022-08-17T13:35:50.321Z,3.83
2022-08-17T13:38:36.539Z,3.15
2022-08-17T13:41:04.038Z,2.58
2022-08-17T13:43:44.440Z,5.20
2022-08-17T13:46:22.679Z,3.20
2022-08-17T13:49:05.301Z,5.03
2022-08-17T13:51:43.222Z,3.03
2022-08-17T13:54:36.640Z,2.92
2022-08-17T13:57:06.691Z,2.80
2022-08-17T13:59:54.804Z,3.58
2022-08-17T14:02:23.100Z,3.38
2022-08-17T14:04:55.634Z,3.75
2022-08-17T14:07:27.689Z,2.00
2022-08-17T14:09:59.018Z,2.90
2022-08-17T14:12:28.340Z,2.60
2022-08-17T14:14:56.392Z,2.97
2022-08-17T14:17:24.517Z,2.35
2022-08-17T14:19:51.485Z,3.42
2022-08-17T14:22:31.429Z,3.20
2022-08-17T14:24:59.142Z,2.17
2022-08-17T14:27:28.183Z,2.55
2022-08-17T14:29:55.661Z,3.63
2022-08-17T14:32:25.464Z,4.28
2022-08-17T14:34:52.766Z,3.00
2022-08-17T14:37:21.022Z,3.55
2022-08-17T14:39:47.679Z,6.38
2022-08-17T14:42:15.549Z,2.80
2022-08-17T14:44:42.095Z,3.55
2022-08-17T14:47:15.895Z,3.33
2022-08-17T14:49:42.578Z,3.50
2022-08-17T14:52:10.734Z,3.20
2022-08-17T14:54:37.651Z,3.65
2022-08-17T14:57:24.638Z,3.55
2022-08-17T14:59:55.129Z,4.28
2022-08-17T15:02:29.934Z,6.07
2022-08-17T15:05:02.055Z,6.88
2022-08-17T15:07:30.680Z,3.13
2022-08-17T15:09:58.754Z,4.03
2022-08-17T15:12:32.013Z,3.15
2022-08-17T15:15:00.648Z,3.95
2022-08-17T15:17:27.228Z,6.13
2022-08-17T15:20:17.838Z,6.22
2022-08-17T15:22:45.781Z,4.30
2022-08-17T15:25:12.961Z,4.00
2022-08-17T15:27:40.406Z,3.88
2022-08-17T15:30:07.877Z,6.35
2022-08-17T15:32:37.946Z,6.35
2022-08-17T15:35:05.976Z,7.53
2022-08-17T15:37:32.542Z,6.18
2022-08-17T15:40:01.247Z,5.20
2022-08-17T15:42:27.995Z,6.38
2022-08-17T15:44:57.373Z,6.38
2022-08-17T15:47:24.506Z,5.88
2022-08-17T15:49:51.095Z,5.53
2022-08-17T15:52:29.644Z,6.28
2022-08-17T15:54:59.799Z,6.32
2022-08-17T15:57:27.387Z,6.35
2022-08-17T15:59:58.397Z,7.22
2022-08-17T16:03:45.549Z,8.77
2022-08-17T16:05:21.922Z,7.15
2022-08-17T16:07:51.985Z,9.80
2022-08-17T16:10:19.422Z,7.15
2022-08-17T16:12:47.543Z,7.75
2022-08-17T16:15:14.702Z,6.22
2022-08-17T16:17:44.014Z,7.50
2022-08-17T16:20:20.357Z,9.90
2022-08-17T16:22:48.664Z,9.00
2022-08-17T16:25:21.090Z,7.88
2022-08-17T16:27:53.397Z,12.30
2022-08-17T16:30:22.973Z,8.90
2022-08-17T16:32:51.408Z,12.52
2022-08-17T16:35:20.515Z,8.27
2022-08-17T16:37:47.989Z,11.80
2022-08-17T16:40:16.660Z,10.20
2022-08-17T16:42:45.302Z,8.75
2022-08-17T16:45:20.956Z,8.43
2022-08-17T16:47:50.279Z,10.25
2022-08-17T16:50:20.523Z,9.48
2022-08-17T16:52:48.499Z,13.02
2022-08-17T16:55:17.990Z,10.90
2022-08-17T16:57:48.572Z,11.02
2022-08-17T17:00:18.252Z,12.70
2022-08-17T17:02:47.287Z,13.10
2022-08-17T17:05:44.817Z,9.02
2022-08-17T17:08:26.706Z,11.45
2022-08-17T17:10:55.909Z,14.65
2022-08-17T17:13:29.343Z,14.05
2022-08-17T17:16:21.748Z,16.45
2022-08-17T17:19:09.288Z,11.05
2022-08-17T17:21:47.360Z,13.48
2022-08-17T17:24:17.278Z,15.65
2022-08-17T17:27:07.323Z,12.80
2022-08-17T17:29:48.526Z,14.35
2022-08-17T17:32:25.599Z,13.23
2022-08-17T17:34:58.752Z,12.13
2022-08-17T17:37:32.601Z,13.77
2022-08-17T17:40:04.093Z,14.27
2022-08-17T17:42:32.234Z,11.95
2022-08-17T17:45:32.781Z,13.63
2022-08-17T17:47:59.302Z,15.13
2022-08-17T17:50:51.660Z,12.93
2022-08-17T17:53:35.207Z,13.55
2022-08-17T17:56:43.007Z,11.88
2022-08-17T17:59:12.750Z,10.40
2022-08-17T18:01:59.642Z,12.52
2022-08-17T18:04:31.894Z,12.50
2022-08-17T18:07:10.146Z,10.75
2022-08-17T18:10:01.250Z,11.70
2022-08-17T18:12:44.428Z,12.10
2022-08-17T18:15:34.788Z,9.82
2022-08-17T18:18:14.599Z,13.07
2022-08-17T18:20:53.137Z,10.63
2022-08-17T18:23:27.687Z,14.13
2022-08-17T18:25:55.063Z,12.23
2022-08-17T18:28:31.354Z,11.68
2022-08-17T18:31:19.243Z,14.07
2022-08-17T18:33:52.375Z,10.52
2022-08-17T18:36:28.205Z,12.48
2022-08-17T18:39:17.130Z,12.60
2022-08-17T18:41:47.319Z,11.32
2022-08-17T18:44:38.030Z,10.87
2022-08-17T18:47:12.968Z,15.25
2022-08-17T18:49:40.522Z,10.20
2022-08-17T18:52:13.086Z,11.38
2022-08-17T18:54:39.755Z,11.85
2022-08-17T18:57:07.607Z,11.43
2022-08-17T18:59:43.963Z,9.60
2022-08-17T19:02:24.867Z,13.25
2022-08-17T19:05:09.752Z,11.00
2022-08-17T19:07:45.226Z,12.48
2022-08-17T19:10:28.845Z,13.98
2022-08-17T19:13:12.546Z,13.30
2022-08-17T19:15:47.847Z,13.20
2022-08-17T19:18:41.506Z,13.07
2022-08-17T19:21:17.102Z,12.10
2022-08-17T19:24:12.208Z,11.45
2022-08-17T19:26:54.709Z,16.60
2022-08-17T19:29:58.116Z,14.38
2022-08-17T19:32:31.235Z,22.45
2022-08-17T19:34:58.183Z,19.55
2022-08-17T19:37:32.618Z,18.00
2022-08-17T19:40:48.944Z,22.33
2022-08-17T19:43:43.186Z,15.80
2022-08-17T19:46:24.563Z,23.50
2022-08-17T19:48:54.075Z,26.60
2022-08-17T19:51:34.261Z,21.58
2022-08-17T19:54:09.928Z,23.02
2022-08-17T19:56:51.687Z,23.35
2022-08-17T19:59:35.980Z,21.40
2022-08-17T20:02:41.976Z,23.23
2022-08-17T20:05:15.593Z,21.92
2022-08-17T20:07:53.329Z,26.70
2022-08-17T20:10:48.006Z,24.13
2022-08-17T20:16:01.377Z,25.27
2022-08-17T20:18:34.015Z,28.55
2022-08-17T20:21:21.225Z,32.63
2022-08-17T20:23:55.884Z,30.05
2022-08-17T20:26:28.820Z,28.67
2022-08-17T20:29:04.393Z,26.85
2022-08-17T20:31:52.507Z,28.88
2022-08-17T20:34:34.860Z,24.60
2022-08-17T20:37:06.148Z,23.98
2022-08-17T20:39:40.674Z,23.88
2022-08-17T20:42:10.110Z,22.15
2022-08-17T20:44:39.127Z,22.15
2022-08-17T20:47:07.897Z,26.63
2022-08-17T20:49:47.239Z,28.52
2022-08-17T20:52:18.376Z,36.75
2022-08-17T20:54:47.131Z,32.83
2022-08-17T20:57:43.794Z,34.17
2022-08-17T21:00:16.840Z,35.13
2022-08-17T21:02:49.599Z,35.78
2022-08-17T21:05:26.118Z,40.75
2022-08-17T21:07:59.970Z,43.87
2022-08-17T21:10:26.447Z,37.08
2022-08-17T21:12:59.645Z,26.88
2022-08-17T21:15:44.966Z,32.38
2022-08-17T21:18:39.222Z,32.58
2022-08-17T21:21:24.447Z,36.50
2022-08-17T21:24:15.313Z,36.08
2022-08-17T21:27:06.578Z,31.00
2022-08-17T21:29:34.038Z,34.33
2022-08-17T21:32:06.671Z,33.50
2022-08-17T21:34:42.583Z,34.22
2022-08-17T21:37:31.099Z,30.27
2022-08-17T21:40:12.973Z,33.72
2022-08-17T21:42:46.795Z,38.10
2022-08-17T21:45:35.035Z,38.05
2022-08-17T21:48:20.166Z,41.67
2022-08-17T21:50:57.903Z,38.15
2022-08-17T21:53:32.697Z,42.50
2022-08-17T21:55:59.822Z,39.92
2022-08-17T21:58:33.721Z,37.35
2022-08-17T22:01:25.322Z,37.45
2022-08-17T22:04:25.808Z,38.80
2022-08-17T22:06:57.161Z,43.03
2022-08-17T22:09:41.393Z,42.42
2022-08-17T22:12:16.491Z,44.53
2022-08-17T22:14:52.889Z,41.20
2022-08-17T22:17:35.993Z,36.47
2022-08-17T22:20:13.092Z,37.13
2022-08-17T22:23:04.491Z,45.45
2022-08-17T22:25:33.313Z,46.13
2022-08-17T22:28:02.636Z,53.47
2022-08-17T22:30:34.464Z,50.63
2022-08-17T22:33:22.582Z,50.67
2022-08-17T22:35:49.905Z,56.53
2022-08-17T22:38:18.930Z,50.38
2022-08-17T22:40:54.343Z,45.60
2022-08-17T22:43:26.197Z,46.75
2022-08-17T22:45:56.078Z,39.90
2022-08-17T22:48:27.189Z,44.15
2022-08-17T22:54:04.453Z,48.05
2022-08-17T22:56:49.885Z,49.90
2022-08-17T22:59:36.159Z,32.65
2022-08-17T23:02:16.422Z,30.38
2022-08-17T23:04:47.676Z,35.10
2022-08-17T23:07:14.682Z,46.83
2022-08-17T23:09:41.361Z,48.67
2022-08-17T23:12:11.612Z,52.05
2022-08-17T23:14:40.973Z,44.75
2022-08-17T23:17:08.341Z,42.88
2022-08-17T23:19:35.447Z,36.40
2022-08-17T23:22:04.287Z,43.97
2022-08-17T23:24:35.584Z,45.25
2022-08-17T23:29:29.588Z,58.90
2022-08-17T23:31:57.923Z,60.55
2022-08-17T23:34:25.606Z,63.10
2022-08-17T23:36:53.145Z,59.08
2022-08-17T23:39:24.441Z,55.53
2022-08-17T23:41:53.513Z,50.72
2022-08-17T23:44:23.399Z,51.88
2022-08-17T23:46:53.520Z,66.57
2022-08-17T23:49:20.124Z,59.83
2022-08-17T23:51:48.024Z,56.60
2022-08-17T23:54:26.020Z,64.05
2022-08-17T23:56:52.892Z,71.45
2022-08-17T23:59:21.599Z,69.18
